createdAt,value
2019-04-27T00:01:26.101Z,59.80
2019-04-27T00:04:19.227Z,59.00
2019-04-27T00:06:49.210Z,58.90
2019-04-27T00:09:34.086Z,58.80
2019-04-27T00:12:07.918Z,58.90
2019-04-27T00:14:39.320Z,58.90
2019-04-27T00:17:44.924Z,59.00
2019-04-27T00:20:30.426Z,59.30
2019-04-27T00:23:05.766Z,59.60
2019-04-27T00:25:36.930Z,59.50
2019-04-27T00:28:08.251Z,59.50
2019-04-27T00:30:39.342Z,59.20
2019-04-27T00:33:13.616Z,59.20
2019-04-27T00:35:56.004Z,59.20
2019-04-27T00:38:43.492Z,59.30
2019-04-27T00:41:19.003Z,59.30
2019-04-27T00:43:49.142Z,59.40
2019-04-27T00:46:20.878Z,59.20
2019-04-27T00:48:53.432Z,59.40
2019-04-27T00:51:24.974Z,59.50
2019-04-27T00:53:56.155Z,59.50
2019-04-27T00:56:44.807Z,59.50
2019-04-27T00:59:34.684Z,59.60
2019-04-27T01:02:28.784Z,59.50
2019-04-27T01:05:00.023Z,59.60
2019-04-27T01:07:33.323Z,59.90
2019-04-27T01:10:05.334Z,60.50
2019-04-27T01:12:37.710Z,60.90
2019-04-27T01:15:08.902Z,60.80
2019-04-27T01:17:39.975Z,60.80
2019-04-27T01:20:11.694Z,60.60
2019-04-27T01:22:42.990Z,60.30
2019-04-27T01:25:14.126Z,60.50
2019-04-27T01:28:09.957Z,60.70
2019-04-27T01:30:46.580Z,60.90
2019-04-27T01:33:17.586Z,60.90
2019-04-27T01:35:49.137Z,60.50
2019-04-27T01:38:20.345Z,60.10
2019-04-27T01:40:52.057Z,60.80
2019-04-27T01:43:23.862Z,60.20
2019-04-27T01:45:55.578Z,60.40
2019-04-27T01:48:28.258Z,61.50
2019-04-27T01:51:00.571Z,62.40
2019-04-27T01:53:40.834Z,62.80
2019-04-27T01:56:12.649Z,63.20
2019-04-27T01:58:43.973Z,63.60
2019-04-27T02:01:45.140Z,63.20
2019-04-27T02:04:35.301Z,63.30
2019-04-27T02:07:09.066Z,62.50
2019-04-27T02:09:43.679Z,62.20
2019-04-27T02:12:15.421Z,62.00
2019-04-27T02:14:46.786Z,62.70
2019-04-27T02:17:18.752Z,62.00
2019-04-27T02:19:50.092Z,62.10
2019-04-27T02:22:21.373Z,62.40
2019-04-27T02:24:52.525Z,63.10
2019-04-27T02:27:25.035Z,62.10
2019-04-27T02:30:13.679Z,61.90
2019-04-27T02:33:02.895Z,61.80
2019-04-27T02:35:34.177Z,61.90
2019-04-27T02:38:05.352Z,62.20
2019-04-27T02:40:56.579Z,62.70
2019-04-27T02:43:43.094Z,62.90
2019-04-27T02:46:14.847Z,62.60
2019-04-27T02:48:56.713Z,63.00
2019-04-27T02:51:29.956Z,63.00
2019-04-27T02:54:01.719Z,63.00
2019-04-27T02:56:32.852Z,62.90
2019-04-27T02:59:04.519Z,63.00
2019-04-27T03:01:46.206Z,63.00
2019-04-27T03:04:14.784Z,63.10
2019-04-27T03:06:46.458Z,63.30
2019-04-27T03:09:20.487Z,63.20
2019-04-27T03:11:52.354Z,62.70
2019-04-27T03:14:51.577Z,62.30
2019-04-27T03:17:33.883Z,62.00
2019-04-27T03:20:29.863Z,61.80
2019-04-27T03:23:03.671Z,61.80
2019-04-27T03:25:43.293Z,62.10
2019-04-27T03:28:16.433Z,62.70
2019-04-27T03:30:51.641Z,62.90
2019-04-27T03:33:22.494Z,63.00
2019-04-27T03:35:54.484Z,63.00
2019-04-27T03:38:26.377Z,63.00
2019-04-27T03:41:00.298Z,62.80
2019-04-27T03:43:31.557Z,62.90
2019-04-27T03:46:03.381Z,62.50
2019-04-27T03:48:35.127Z,62.40
2019-04-27T03:51:24.003Z,62.20
2019-04-27T03:54:29.849Z,62.30
2019-04-27T03:57:05.540Z,62.20
2019-04-27T04:00:10.122Z,62.20
2019-04-27T04:02:40.769Z,62.20
2019-04-27T04:05:12.776Z,62.10
2019-04-27T04:07:44.699Z,62.00
2019-04-27T04:10:16.488Z,61.80
2019-04-27T04:12:56.745Z,61.70
2019-04-27T04:15:51.890Z,61.60
2019-04-27T04:18:24.086Z,61.40
2019-04-27T04:20:55.227Z,61.20
2019-04-27T04:23:26.213Z,61.30
2019-04-27T04:25:59.686Z,61.40
2019-04-27T04:28:31.109Z,61.30
2019-04-27T04:31:03.063Z,61.20
2019-04-27T04:33:34.709Z,60.90
2019-04-27T04:36:05.988Z,62.40
2019-04-27T04:38:37.186Z,63.40
2019-04-27T04:41:11.252Z,63.10
2019-04-27T04:43:49.108Z,62.50
2019-04-27T04:46:42.881Z,62.30
2019-04-27T04:49:14.101Z,61.80
2019-04-27T04:51:45.338Z,61.90
2019-04-27T04:54:16.488Z,61.90
2019-04-27T04:56:49.316Z,61.90
2019-04-27T04:59:20.738Z,61.80
2019-04-27T05:01:51.926Z,61.60
2019-04-27T05:04:23.279Z,61.40
2019-04-27T05:06:54.518Z,61.20
2019-04-27T05:09:26.159Z,61.70
2019-04-27T05:11:58.757Z,60.90
2019-04-27T05:14:30.049Z,60.40
2019-04-27T05:17:01.147Z,60.60
2019-04-27T05:19:33.574Z,61.20
2019-04-27T05:22:04.961Z,61.70
2019-04-27T05:24:36.548Z,61.90
2019-04-27T05:27:09.203Z,61.00
2019-04-27T05:29:41.156Z,60.00
2019-04-27T05:32:12.594Z,59.70
2019-04-27T05:34:43.707Z,59.40
2019-04-27T05:37:14.800Z,59.20
2019-04-27T05:39:45.940Z,59.00
2019-04-27T05:42:19.870Z,59.50
2019-04-27T05:45:20.003Z,59.60
2019-04-27T05:48:13.916Z,59.20
2019-04-27T05:50:45.957Z,58.40
2019-04-27T05:53:18.880Z,58.20
2019-04-27T05:55:50.331Z,57.70
2019-04-27T05:58:21.460Z,57.20
2019-04-27T06:00:52.689Z,56.10
2019-04-27T06:03:23.796Z,55.20
2019-04-27T06:05:54.788Z,54.80
2019-04-27T06:08:26.466Z,54.50
2019-04-27T06:10:59.087Z,54.40
2019-04-27T06:13:31.110Z,52.80
2019-04-27T06:16:02.396Z,52.80
2019-04-27T06:18:33.610Z,52.10
2019-04-27T06:21:05.239Z,52.00
2019-04-27T06:23:36.589Z,51.50
2019-04-27T06:26:09.188Z,50.90
2019-04-27T06:28:42.178Z,50.40
2019-04-27T06:31:13.233Z,49.40
2019-04-27T06:33:44.478Z,48.40
2019-04-27T06:36:16.121Z,48.10
2019-04-27T06:38:48.547Z,47.50
2019-04-27T06:41:19.762Z,46.80
2019-04-27T06:43:51.028Z,45.80
2019-04-27T06:46:22.239Z,45.50
2019-04-27T06:48:53.461Z,45.00
2019-04-27T06:51:24.437Z,44.80
2019-04-27T06:53:55.508Z,44.10
2019-04-27T06:56:26.653Z,44.20
2019-04-27T06:58:59.584Z,43.60
2019-04-27T07:01:30.803Z,43.20
2019-04-27T07:04:02.203Z,43.70
2019-04-27T07:06:33.282Z,43.50
2019-04-27T07:09:06.884Z,43.50
2019-04-27T07:11:39.392Z,43.40
2019-04-27T07:14:11.845Z,42.90
2019-04-27T07:16:42.990Z,42.30
2019-04-27T07:19:14.808Z,41.80
2019-04-27T07:21:45.860Z,41.10
2019-04-27T07:24:17.537Z,41.40
2019-04-27T07:26:49.853Z,41.20
2019-04-27T07:29:23.210Z,40.90
2019-04-27T07:31:54.258Z,40.70
2019-04-27T07:34:28.630Z,40.10
2019-04-27T07:37:00.031Z,39.80
2019-04-27T07:39:31.801Z,39.90
2019-04-27T07:42:03.556Z,39.80
2019-04-27T07:44:49.988Z,39.80
2019-04-27T07:47:23.905Z,40.30
2019-04-27T07:49:55.683Z,40.60
2019-04-27T07:52:28.722Z,40.60
2019-04-27T07:55:00.483Z,40.10
2019-04-27T07:57:32.669Z,39.80
2019-04-27T08:00:04.603Z,39.30
2019-04-27T08:02:36.523Z,39.00
2019-04-27T08:05:09.423Z,38.50
2019-04-27T08:07:41.264Z,38.50
2019-04-27T08:10:13.217Z,37.60
2019-04-27T08:12:45.003Z,37.30
2019-04-27T08:15:19.010Z,36.90
2019-04-27T08:17:51.009Z,37.00
2019-04-27T08:20:22.766Z,36.10
2019-04-27T08:22:54.436Z,35.00
2019-04-27T08:25:26.188Z,35.20
2019-04-27T08:28:19.340Z,35.50
2019-04-27T08:30:58.553Z,35.20
2019-04-27T08:33:30.245Z,34.60
2019-04-27T08:36:03.309Z,35.00
2019-04-27T08:38:35.243Z,34.30
2019-04-27T08:41:10.103Z,34.10
2019-04-27T08:43:42.000Z,34.30
2019-04-27T08:46:13.257Z,34.30
2019-04-27T08:48:44.848Z,34.40
2019-04-27T08:51:16.598Z,33.40
2019-04-27T08:53:49.982Z,33.50
2019-04-27T08:56:21.727Z,32.80
2019-04-27T08:58:53.397Z,33.10
2019-04-27T09:01:24.658Z,33.30
2019-04-27T09:03:56.332Z,32.70
2019-04-27T09:06:28.891Z,33.00
2019-04-27T09:09:09.516Z,32.80
2019-04-27T09:11:49.404Z,32.90
2019-04-27T09:14:42.876Z,32.20
2019-04-27T09:17:24.618Z,32.50
2019-04-27T09:20:16.537Z,31.90
2019-04-27T09:22:49.294Z,30.90
2019-04-27T09:25:21.130Z,30.80
2019-04-27T09:27:53.050Z,30.30
2019-04-27T09:30:24.933Z,30.20
2019-04-27T09:32:56.675Z,30.20
2019-04-27T09:35:28.077Z,30.60
2019-04-27T09:37:59.886Z,30.90
2019-04-27T09:40:31.504Z,30.90
2019-04-27T09:43:02.734Z,30.90
2019-04-27T09:45:33.934Z,30.00
2019-04-27T09:48:06.657Z,30.90
2019-04-27T09:50:38.404Z,30.70
2019-04-27T09:53:10.417Z,30.90
2019-04-27T09:55:42.075Z,30.90
2019-04-27T09:58:13.986Z,31.40
2019-04-27T10:00:45.843Z,30.40
2019-04-27T10:03:17.942Z,30.70
2019-04-27T10:05:49.795Z,30.00
2019-04-27T10:08:21.548Z,29.80
2019-04-27T10:10:53.185Z,29.70
2019-04-27T10:13:25.660Z,29.60
2019-04-27T10:15:57.885Z,29.50
2019-04-27T10:18:30.721Z,29.30
2019-04-27T10:21:02.404Z,29.60
2019-04-27T10:23:34.263Z,29.80
2019-04-27T10:26:06.847Z,29.50
2019-04-27T10:28:38.680Z,29.10
2019-04-27T10:31:10.553Z,29.40
2019-04-27T10:33:42.298Z,28.80
2019-04-27T10:36:14.139Z,28.70
2019-04-27T10:38:45.970Z,28.80
2019-04-27T10:41:17.512Z,28.70
2019-04-27T10:43:48.795Z,28.80
2019-04-27T10:46:20.389Z,29.10
2019-04-27T10:48:52.144Z,28.60
2019-04-27T10:51:23.930Z,28.50
2019-04-27T10:53:55.806Z,28.60
2019-04-27T10:56:27.997Z,28.50
2019-04-27T10:59:00.220Z,28.60
2019-04-27T11:01:32.604Z,29.00
2019-04-27T11:04:26.605Z,29.00
2019-04-27T11:07:05.476Z,28.90
2019-04-27T11:09:39.112Z,28.90
2019-04-27T11:12:11.097Z,29.00
2019-04-27T11:14:42.906Z,28.40
2019-04-27T11:17:16.300Z,28.70
2019-04-27T11:19:47.976Z,29.10
2019-04-27T11:22:19.792Z,28.60
2019-04-27T11:24:51.405Z,29.30
2019-04-27T11:27:23.085Z,29.80
2019-04-27T11:29:56.302Z,30.60
2019-04-27T11:32:29.194Z,31.40
2019-04-27T11:35:07.164Z,31.00
2019-04-27T11:37:38.893Z,30.60
2019-04-27T11:40:11.774Z,30.90
2019-04-27T11:42:43.455Z,31.10
2019-04-27T11:45:18.308Z,31.40
2019-04-27T11:47:50.081Z,31.10
2019-04-27T11:50:21.984Z,30.40
2019-04-27T11:52:53.672Z,29.40
2019-04-27T11:55:27.175Z,28.70
2019-04-27T11:57:58.566Z,28.40
2019-04-27T12:00:31.564Z,27.90
2019-04-27T12:03:03.165Z,27.70
2019-04-27T12:05:36.257Z,27.90
2019-04-27T12:08:08.399Z,28.00
2019-04-27T12:10:41.278Z,27.80
2019-04-27T12:13:12.957Z,27.80
2019-04-27T12:15:46.472Z,28.20
2019-04-27T12:18:18.030Z,28.40
2019-04-27T12:20:49.382Z,28.30
2019-04-27T12:23:32.780Z,28.10
2019-04-27T12:25:56.308Z,28.80
2019-04-27T12:28:37.790Z,29.30
2019-04-27T12:31:17.100Z,30.00
2019-04-27T12:33:48.856Z,31.00
2019-04-27T12:36:20.623Z,33.20
2019-04-27T12:38:52.299Z,33.30
2019-04-27T12:41:23.503Z,34.60
2019-04-27T12:43:56.102Z,35.00
2019-04-27T12:46:27.570Z,36.00
2019-04-27T12:48:59.916Z,37.30
2019-04-27T12:51:31.000Z,37.10
2019-04-27T12:54:07.763Z,37.60
2019-04-27T12:56:57.062Z,38.40
2019-04-27T12:59:46.655Z,38.70
2019-04-27T13:02:19.927Z,38.80
2019-04-27T13:04:51.715Z,39.60
2019-04-27T13:07:23.426Z,39.70
2019-04-27T13:09:56.287Z,40.50
2019-04-27T13:12:28.162Z,41.50
2019-04-27T13:14:59.673Z,42.20
2019-04-27T13:17:30.972Z,42.80
2019-04-27T13:20:02.276Z,43.30
2019-04-27T13:22:36.997Z,42.60
2019-04-27T13:25:08.142Z,42.40
2019-04-27T13:27:39.425Z,42.90
2019-04-27T13:30:11.640Z,43.00
2019-04-27T13:32:43.033Z,43.10
2019-04-27T13:35:15.833Z,43.50
2019-04-27T13:37:48.205Z,43.60
2019-04-27T13:40:20.099Z,44.00
2019-04-27T13:43:44.364Z,44.60
2019-04-27T13:46:52.397Z,45.00
2019-04-27T13:49:41.625Z,45.70
2019-04-27T13:52:26.387Z,45.90
2019-04-27T13:54:58.047Z,47.30
2019-04-27T13:57:29.686Z,47.40
2019-04-27T14:00:01.288Z,48.20
2019-04-27T14:02:34.932Z,48.80
2019-04-27T14:05:07.408Z,49.20
2019-04-27T14:07:40.741Z,49.60
2019-04-27T14:10:12.400Z,49.90
2019-04-27T14:12:44.156Z,50.30
2019-04-27T14:15:16.111Z,51.90
2019-04-27T14:17:49.980Z,52.90
2019-04-27T14:20:22.084Z,54.10
2019-04-27T14:22:55.673Z,54.30
2019-04-27T14:25:28.068Z,54.00
2019-04-27T14:27:59.783Z,54.60
2019-04-27T14:30:31.455Z,54.60
2019-04-27T14:33:03.061Z,54.70
2019-04-27T14:35:35.232Z,54.20
2019-04-27T14:38:06.607Z,53.80
2019-04-27T14:40:39.253Z,54.30
2019-04-27T14:43:11.536Z,54.50
2019-04-27T14:45:43.878Z,54.50
2019-04-27T14:48:15.796Z,54.40
2019-04-27T14:50:48.517Z,54.80
2019-04-27T14:53:21.039Z,54.50
2019-04-27T14:55:52.675Z,54.90
2019-04-27T14:58:24.130Z,55.10
2019-04-27T15:00:55.365Z,55.00
2019-04-27T15:03:26.578Z,55.30
2019-04-27T15:05:57.860Z,55.40
2019-04-27T15:08:28.867Z,55.10
2019-04-27T15:11:00.159Z,55.50
2019-04-27T15:13:31.794Z,55.40
2019-04-27T15:16:06.663Z,55.60
2019-04-27T15:18:43.579Z,55.80
2019-04-27T15:21:13.353Z,56.10
2019-04-27T15:23:44.803Z,56.50
2019-04-27T15:26:20.303Z,56.90
2019-04-27T15:28:51.182Z,57.10
2019-04-27T15:31:29.920Z,57.60
2019-04-27T15:34:11.123Z,57.80
2019-04-27T15:36:58.206Z,57.70
2019-04-27T15:40:08.210Z,57.70
2019-04-27T15:42:49.041Z,57.60
2019-04-27T15:45:15.921Z,57.50
2019-04-27T15:47:49.305Z,57.60
2019-04-27T15:50:23.512Z,57.70
2019-04-27T15:52:52.544Z,58.20
2019-04-27T15:55:34.555Z,58.20
2019-04-27T15:57:57.135Z,58.40
2019-04-27T16:00:29.046Z,58.40
2019-04-27T16:03:00.251Z,58.50
2019-04-27T16:05:33.350Z,58.80
2019-04-27T16:08:07.983Z,59.10
2019-04-27T16:10:40.310Z,59.30
2019-04-27T16:13:15.091Z,59.00
2019-04-27T16:15:50.159Z,59.30
2019-04-27T16:18:18.643Z,59.40
2019-04-27T16:20:51.049Z,60.40
2019-04-27T16:23:22.988Z,59.90
2019-04-27T16:25:55.170Z,60.30
2019-04-27T16:28:27.023Z,60.60
2019-04-27T16:30:58.609Z,61.00
2019-04-27T16:33:30.766Z,61.10
2019-04-27T16:36:07.053Z,61.60
2019-04-27T16:38:56.608Z,62.00
2019-04-27T16:41:28.394Z,62.00
2019-04-27T16:44:02.330Z,62.00
2019-04-27T16:46:34.798Z,62.40
2019-04-27T16:49:13.281Z,62.50
2019-04-27T16:51:40.419Z,62.90
2019-04-27T16:54:17.755Z,62.60
2019-04-27T16:56:49.696Z,62.70
2019-04-27T16:59:39.795Z,62.80
2019-04-27T17:01:51.873Z,62.90
2019-04-27T17:04:23.545Z,63.30
2019-04-27T17:06:55.398Z,63.30
2019-04-27T17:09:28.761Z,63.40
2019-04-27T17:11:59.841Z,63.60
2019-04-27T17:15:05.800Z,63.60
2019-04-27T17:17:59.965Z,63.10
2019-04-27T17:20:31.419Z,63.20
2019-04-27T17:23:03.323Z,63.50
2019-04-27T17:25:39.812Z,63.80
2019-04-27T17:28:13.484Z,63.80
2019-04-27T17:30:45.119Z,63.80
2019-04-27T17:33:23.606Z,63.70
2019-04-27T17:35:57.670Z,63.90
2019-04-27T17:38:30.470Z,63.90
2019-04-27T17:41:04.623Z,64.20
2019-04-27T17:43:37.372Z,64.10
2019-04-27T17:46:11.539Z,64.00
2019-04-27T17:48:48.364Z,64.20
2019-04-27T17:51:19.554Z,63.80
2019-04-27T17:53:51.303Z,64.40
2019-04-27T17:56:33.282Z,64.40
2019-04-27T17:58:55.583Z,64.30
2019-04-27T18:01:30.160Z,64.00
2019-04-27T18:04:02.961Z,63.80
2019-04-27T18:06:33.310Z,63.90
2019-04-27T18:09:08.300Z,63.90
2019-04-27T18:11:41.023Z,63.90
2019-04-27T18:14:14.687Z,63.90
2019-04-27T18:16:45.573Z,63.70
2019-04-27T18:19:22.118Z,63.80
2019-04-27T18:22:00.982Z,63.80
2019-04-27T18:24:55.628Z,63.60
2019-04-27T18:27:38.910Z,63.30
2019-04-27T18:30:21.466Z,63.30
2019-04-27T18:32:52.826Z,63.30
2019-04-27T18:35:26.137Z,63.30
2019-04-27T18:37:58.425Z,63.60
2019-04-27T18:40:32.336Z,63.40
2019-04-27T18:43:06.356Z,63.70
2019-04-27T18:45:39.904Z,63.70
2019-04-27T18:48:14.763Z,63.80
2019-04-27T18:50:53.969Z,63.80
2019-04-27T18:53:28.820Z,63.70
2019-04-27T18:56:05.143Z,63.80
2019-04-27T18:58:34.006Z,63.70
2019-04-27T19:01:05.442Z,63.80
2019-04-27T19:03:36.703Z,63.90
2019-04-27T19:06:08.532Z,63.90
2019-04-27T19:08:40.357Z,63.80
2019-04-27T19:11:11.747Z,64.00
2019-04-27T19:13:43.056Z,63.70
2019-04-27T19:16:14.485Z,63.40
2019-04-27T19:18:47.966Z,63.20
2019-04-27T19:21:23.539Z,63.00
2019-04-27T19:23:55.059Z,63.10
2019-04-27T19:26:58.755Z,63.00
2019-04-27T19:29:35.565Z,62.70
2019-04-27T19:32:08.082Z,62.70
2019-04-27T19:34:39.524Z,62.70
2019-04-27T19:37:11.202Z,62.90
2019-04-27T19:39:43.039Z,62.90
2019-04-27T19:42:14.910Z,62.90
2019-04-27T19:44:48.085Z,63.00
2019-04-27T19:47:19.819Z,63.40
2019-04-27T19:49:51.513Z,63.60
2019-04-27T19:52:23.406Z,63.50
2019-04-27T19:54:54.852Z,63.60
2019-04-27T19:57:34.679Z,63.60
2019-04-27T20:00:01.112Z,63.60
2019-04-27T20:02:34.758Z,63.60
2019-04-27T20:05:07.883Z,63.50
2019-04-27T20:07:39.167Z,63.40
2019-04-27T20:10:11.468Z,63.30
2019-04-27T20:12:43.316Z,63.50
2019-04-27T20:15:15.164Z,63.80
2019-04-27T20:17:46.733Z,63.90
2019-04-27T20:20:18.070Z,64.00
2019-04-27T20:22:49.422Z,64.10
2019-04-27T20:25:21.254Z,64.10
2019-04-27T20:27:52.794Z,64.10
2019-04-27T20:30:24.375Z,64.20
2019-04-27T20:32:56.016Z,64.20
2019-04-27T20:35:27.849Z,64.10
2019-04-27T20:37:59.576Z,64.10
2019-04-27T20:40:31.638Z,64.20
2019-04-27T20:43:03.010Z,64.40
2019-04-27T20:45:34.594Z,64.30
2019-04-27T20:48:05.849Z,64.30
2019-04-27T20:50:37.174Z,64.00
2019-04-27T20:53:12.603Z,64.20
2019-04-27T20:55:43.993Z,64.90
2019-04-27T20:58:15.149Z,64.20
2019-04-27T21:00:46.404Z,64.00
2019-04-27T21:03:32.765Z,64.00
2019-04-27T21:06:12.972Z,64.90
2019-04-27T21:08:44.368Z,64.20
2019-04-27T21:11:15.647Z,64.50
2019-04-27T21:13:47.246Z,64.30
2019-04-27T21:16:18.556Z,64.00
2019-04-27T21:18:51.318Z,64.00
2019-04-27T21:21:22.414Z,64.00
2019-04-27T21:23:53.723Z,64.30
2019-04-27T21:26:24.757Z,64.40
2019-04-27T21:28:55.968Z,64.50
2019-04-27T21:31:27.113Z,65.40
2019-04-27T21:33:58.208Z,64.50
2019-04-27T21:36:32.365Z,64.50
2019-04-27T21:39:04.377Z,64.40
2019-04-27T21:41:37.047Z,64.90
2019-04-27T21:44:08.247Z,64.40
2019-04-27T21:46:41.185Z,64.40
2019-04-27T21:49:12.710Z,64.40
2019-04-27T21:52:05.045Z,64.50
2019-04-27T21:54:36.851Z,64.50
2019-04-27T21:57:08.097Z,64.50
2019-04-27T21:59:39.319Z,64.60
2019-04-27T22:02:12.160Z,64.60
2019-04-27T22:04:43.490Z,64.90
2019-04-27T22:07:14.684Z,64.90
2019-04-27T22:09:45.759Z,65.00
2019-04-27T22:12:17.008Z,65.20
2019-04-27T22:14:48.610Z,65.30
2019-04-27T22:17:19.923Z,65.30
2019-04-27T22:19:51.459Z,65.10
2019-04-27T22:22:31.916Z,65.00
2019-04-27T22:25:07.640Z,65.00
2019-04-27T22:27:41.364Z,65.40
2019-04-27T22:30:12.754Z,65.50
2019-04-27T22:32:43.858Z,65.50
2019-04-27T22:35:15.024Z,65.50
2019-04-27T22:37:46.285Z,65.60
2019-04-27T22:40:34.816Z,65.60
2019-04-27T22:43:41.266Z,65.50
2019-04-27T22:46:15.218Z,65.40
2019-04-27T22:48:46.397Z,65.60
2019-04-27T22:51:17.410Z,65.80
2019-04-27T22:53:48.489Z,66.70
2019-04-27T22:56:22.298Z,66.10
2019-04-27T22:59:12.744Z,66.30
2019-04-27T23:01:56.364Z,66.30
2019-04-27T23:04:34.659Z,66.30
2019-04-27T23:07:05.676Z,66.30
2019-04-27T23:09:37.091Z,66.50
2019-04-27T23:12:08.552Z,66.30
2019-04-27T23:14:41.368Z,66.30
2019-04-27T23:17:31.696Z,66.30
2019-04-27T23:20:03.173Z,66.60
2019-04-27T23:22:34.452Z,66.50
2019-04-27T23:25:06.975Z,66.50
2019-04-27T23:27:38.093Z,66.40
2019-04-27T23:30:11.205Z,66.30
2019-04-27T23:32:45.313Z,66.10
2019-04-27T23:35:16.544Z,66.00
2019-04-27T23:37:47.612Z,65.90
2019-04-27T23:40:18.845Z,65.80
2019-04-27T23:42:51.553Z,65.80
2019-04-27T23:45:22.943Z,65.70
2019-04-27T23:47:54.039Z,65.50
2019-04-27T23:50:26.774Z,65.50
2019-04-27T23:53:05.727Z,65.50
2019-04-27T23:55:37.570Z,65.30
2019-04-27T23:58:08.810Z,65.20
